KVBG/VBG METAR and TAF weather

Enter ICAO airport designator
Station Type Date Time Source
KVBG METAR 2019/02/17 16:39 UTC NOAA

KVBG 171639Z AUTO 36008KT 1 1/8SM RA BR FEW010 BKN019 OVC024 08/07 A3011 RMK AO2 VIS 1 1/8V1 3/4 VIS 2 1/4 RWY12 RAE18DZB18E20RAB29 CIG 01


Station Type Date Time Source
KVBG Decoded METAR 2019/02/17 16:39 UTC NOAA

Lompoc, Vandenberg Air Force Base, CA, United States (KVBG) 34-43-46N 120-34-36W 121M
Feb 17, 2019 - 11:39 AM EST / 2019.02.17 1639 UTC
Wind: from the N (360 degrees) at 9 MPH (8 KT):0
Visibility: 1 1/8 mile(s):0
Sky conditions: overcast
Weather: rain; mist
Temperature: 46 F (8 C)
Dew Point: 44 F (7 C)
Relative Humidity: 93%
Pressure (altimeter): 30.11 in. Hg (1019 hPa)
ob: KVBG 171639Z AUTO 36008KT 1 1/8SM RA BR FEW010 BKN019 OVC024 08/07 A3011 RMK AO2 VIS 1 1/8V1 3/4 VIS 2 1/4 RWY12 RAE18DZB18E20RAB29 CIG 017V021 SLP200
cycle: 16

Station Type Date Time Source
KVBG TAF 2019/02/14 23:06 UTC NOAA

TAF KVBG 142303Z 1423/1605 25015G25KT 9999 BKN027 BKN080 QNH2976INS
BECMG 1502/1503 30012G18KT 9999 BKN025 QNH2980INS
BECMG 1505/1506 25009KT 9999 VCSH BKN020 QNH2985INS
BECMG 1512/1513 25009KT 9999 NSW BKN020 QNH2995INS
TEMPO 1515/1519 8000 -SHRA
BECMG 1518/1519 26010G15KT 8000 -SHRA SCT010 BKN020 QNH3000INS TX15/1522Z TN08/1512Z LAST NO
AMDS AFT 1501 NEXT 1707


Example: see airport list